Marble Falls, TX

6:07 AM CDT on August 29, 2014 (GMT -0500)
Water Treatment Plant | Change Station
CLOSE
Current Station
Personal Weather Station
Location: Meadowlakes, TX
Elevation: 800 ft
Nearby Weather Stations

Elev 800 ft 30.56 °N, 98.29 °W | Updated 11 seconds ago

Scattered Clouds
Scattered Clouds
76.8 °F
Feels Like 78 °F
N
0.0
Wind Variable Wind from SE
Gusts 0.0 mph

Today
High -- | Low -- °F
--% Chance of Precip.
Yesterday
High -- | Low -- °F
Precip. -- in
7:08 AM 7:59 PM
Waxing Crescent, 13% visible
Pressure 29.92 in
Visibility 10.0 miles
Clouds Scattered Clouds 2100 ft
Heat Index 78 °F
Dew Point 72 °F
Humidity 86%
Rainfall 0.00 in
Snow Depth Not available.
UV 0 out of 12
Pollen 7.30 out of 12
Air Quality Not available.
Flu Activity Not available.
METAR KDZB 291055Z AUTO 00000KT 10SM SCT021 24/22 A2992 RMK AO2 LTG DSNT N AND NW T02400216

More Conditions Fewer Conditions

Pressure 29.92 in
Visibility 10.0 miles
Clouds Scattered Clouds 2100 ft
Heat Index 78 °F
Dew Point 72 °F
Humidity 86%
Rainfall 0.00 in
Snow Depth Not available.
UV 0 out of 12
Pollen 7.30 out of 12
Air Quality Not available.
Flu Activity Not available.
METAR KDZB 291055Z AUTO 00000KT 10SM SCT021 24/22 A2992 RMK AO2 LTG DSNT N AND NW T02400216

More Conditions Fewer Conditions

Nowcast | as of 5:37 am CDT on August 29, 2014

Through 9 am CDT...isolated to scattered showers and thunderstorms over west central Texas will move southeast at 15 mph toward central Texas and the southern Edwards Plateau. Rain chances will advance south to near an Amistad Reservoir to Mountain Home to Jarrell line by 9 am. Early morning rainfall amounts north of this line should average less than 1/10 inch...but a few totals up to 1/2 inch are possible. Rain chances will continue to expand south and east into the I-35 corridor counties later today.

×

10-Day Weather Forecast

Almanac

Astronomy

Aug. 29, 2014 Rise Set
Actual Time 7:08 AM CDT 7:59 PM CDT
Civil Twilight 6:43 AM CDT 8:24 PM CDT
Nautical Twilight 6:14 AM CDT 8:53 PM CDT
Astronomical Twilight 5:44 AM CDT 9:23 PM CDT
Moon 10:40 AM CDT 10:18 PM CDT
Length of Visible Light 13h 40m
Length of Day
12h 51m
Tomorrow will be 1m 44s shorter.
Waxing Crescent, 13% of the Moon is Illuminated
Today
Waxing Crescent
Sep 2
First Quarter
Sep 8
Full
Sep 15
Last Quarter
Sep 24
New

Today's Extremes

State Highs State Lows

Community

WunderPhotos

Upload Photos

1,748,211 photos uploaded!

Nearby

Snow Depth

Station Depth Elevation
No new snow has been reported.

Earthquake Activity

City Distance Mag. Time & Date
No recent earthquake activity has been reported nearby.
Minimum magnitude displayed is 2.5.

Coastal Water Temperatures

Place Temperature
No Stations Reporting

Nearby Weather Stations